Date,TemperatureHighF,TemperatureAvgF,TemperatureLowF,DewpointHighF,DewpointAvgF,DewpointLowF,HumidityHigh,HumidityAvg,HumidityLow,PressureMaxIn,PressureMinIn,WindSpeedMaxMPH,WindSpeedAvgMPH,GustSpeedMaxMPH,PrecipitationSumIn
2013-1-1,49.6,48.5,46.1,49.3,42.0,27.6,100,81,46,30.10,29.90,13,2,13,0.47
2013-1-2,52.0,48.2,44.5,48.8,45.0,40.3,100,89,75,30.11,29.85,12,2,12,0.09
2013-1-3,44.5,39.3,29.8,41.5,37.4,29.1,98,93,84,30.26,30.06,7,2,7,0.00
2013-1-4,51.3,37.6,26.0,30.4,22.5,13.7,98,59,27,30.33,30.21,14,3,14,0.00
2013-1-5,46.8,37.1,25.0,33.6,23.5,17.8,79,59,35,30.37,30.21,6,1,6,0.00
2013-1-6,55.0,44.8,34.7,41.4,36.0,28.1,85,72,58,30.21,30.01,13,2,13,0.02
2013-1-7,51.7,39.8,29.8,29.8,27.5,24.5,85,63,38,30.39,30.17,12,2,12,0.00
2013-1-8,51.3,41.7,29.8,39.5,33.2,26.1,88,73,56,30.43,30.33,6,1,6,0.00
2013-1-9,63.2,53.9,46.5,52.1,46.2,38.8,90,75,63,30.42,30.33,10,1,10,0.00
2013-1-10,67.9,56.9,46.5,52.2,49.6,46.0,99,79,55,30.45,30.31,7,1,7,0.03
2013-1-11,53.8,49.0,47.4,51.7,48.5,47.1,100,98,89,30.32,30.12,12,2,12,0.22
2013-1-12,71.5,59.7,49.1,63.7,57.3,49.1,100,93,73,30.13,30.04,12,1,12,0.03
2013-1-13,71.1,61.9,56.9,61.7,59.0,56.6,99,91,68,30.08,30.00,12,1,12,0.01
2013-1-14,66.8,62.5,59.2,64.8,61.8,58.3,100,98,91,30.07,29.99,12,1,12,0.16
2013-1-15,59.2,49.4,42.2,58.3,48.9,41.7,99,98,96,30.11,30.01,14,3,14,0.15
2013-1-16,50.1,45.8,41.9,50.1,45.5,41.4,100,99,98,30.03,29.94,10,1,10,0.24
2013-1-17,51.6,46.2,35.3,51.6,45.6,34.3,100,98,92,30.16,29.05,29,6,29,2.54
2013-1-18,50.4,38.7,29.0,34.2,27.3,23.1,98,66,37,30.49,30.16,16,2,16,0.01
2013-1-19,54.2,39.5,27.5,30.5,25.4,21.4,86,60,29,30.47,30.16,12,1,12,0.00
2013-1-20,64.3,48.3,35.2,35.7,28.8,23.0,70,49,28,30.16,29.99,14,3,14,0.00
2013-1-21,60.5,44.5,32.5,31.1,24.3,14.5,78,48,24,30.05,29.89,20,3,20,0.00
2013-1-22,41.9,34.6,26.6,17.7,6.7,-5.2,48,32,15,30.24,29.98,26,7,26,0.00
2013-1-23,47.1,34.6,23.2,27.8,16.2,6.6,63,48,29,30.33,30.04,13,2,13,0.00
2013-1-24,49.8,39.0,25.3,31.0,16.6,3.1,84,44,20,30.46,29.97,31,5,31,0.00
2013-1-25,26.9,25.3,22.1,24.7,14.4,3.8,93,65,39,30.48,30.10,5,1,5,0.01
2013-1-26,48.8,34.3,25.4,36.6,29.6,24.0,97,84,51,30.33,30.08,6,1,6,0.01
2013-1-27,44.9,36.9,29.3,30.8,27.0,23.8,89,69,49,30.53,30.32,10,2,10,0.00
2013-1-28,50.8,42.7,36.9,47.0,35.0,27.2,94,74,62,30.43,30.23,12,1,12,0.00
2013-1-29,69.8,58.3,44.5,58.7,52.7,43.4,98,83,64,30.23,29.97,15,2,15,0.00
2013-1-30,70.6,63.6,47.6,63.0,58.8,43.1,98,85,68,29.97,29.41,27,6,27,1.28
2013-1-31,49.9,42.6,35.5,43.9,26.2,16.8,87,54,27,30.01,29.51,21,6,21,0.06
2013-2-1,40.3,35.3,24.8,28.5,10.7,-2.4,65,38,18,30.34,29.91,33,8,33,0.00
2013-2-2,44.9,33.1,20.6,34.8,16.3,5.3,86,53,26,30.37,30.02,22,3,22,0.00
2013-2-3,54.4,41.4,30.0,34.8,27.9,20.5,94,62,29,30.02,29.84,20,6,20,0.00
2013-2-4,50.7,38.0,25.6,28.7,22.4,18.3,78,55,32,30.11,29.97,9,1,9,0.00
2013-2-5,63.9,49.0,36.2,43.3,34.7,27.4,90,59,40,29.97,29.84,17,3,17,0.00
2013-2-6,65.8,51.5,40.6,41.8,29.0,17.2,97,49,17,30.16,29.95,14,3,14,0.00
2013-2-7,49.8,42.3,39.1,39.1,32.3,22.8,96,71,37,30.21,29.95,16,6,16,0.83
2013-2-8,57.5,46.6,38.8,47.0,37.2,28.2,96,73,36,30.08,29.86,22,6,22,0.01
2013-2-9,59.8,43.1,29.1,29.0,23.8,17.4,88,51,22,30.30,30.06,12,2,12,0.00
2013-2-10,56.5,46.3,36.8,44.9,29.3,19.0,96,54,27,30.39,30.12,13,2,13,0.22
2013-2-11,56.5,50.2,43.2,56.0,49.7,42.1,100,98,94,30.13,29.91,15,2,15,0.09
2013-2-12,58.0,49.9,41.2,49.7,34.8,23.4,98,61,28,30.06,29.85,13,2,13,0.12
2013-2-13,49.2,44.3,35.0,45.7,41.0,30.9,98,89,59,29.88,29.62,22,2,22,0.05
2013-2-14,52.2,39.8,28.8,34.5,30.9,27.2,95,73,44,30.03,29.85,10,1,10,0.01
2013-2-15,62.1,46.4,30.1,37.8,32.5,28.5,97,64,28,30.06,29.90,12,2,15,0.00
2013-2-16,44.1,35.2,24.7,33.8,28.5,19.4,96,77,57,30.01,29.79,11,2,12,0.02
2013-2-17,42.2,31.4,22.2,19.8,11.6,5.5,81,47,24,30.25,30.01,20,6,20,0.08
2013-2-18,55.4,38.3,23.2,25.5,19.3,10.9,69,48,28,30.35,30.18,9,1,9,0.00
2013-2-19,53.1,41.5,34.9,43.1,32.9,15.0,98,73,34,30.18,29.84,15,3,15,0.22
2013-2-20,54.4,42.8,29.5,23.4,12.5,4.6,50,30,14,30.07,29.99,20,5,20,0.00
2013-2-21,58.0,43.7,27.6,35.6,16.9,4.6,71,36,19,30.20,30.05,9,1,9,0.05
2013-2-22,43.5,38.6,37.2,37.8,36.9,33.6,98,94,68,30.25,30.08,13,3,13,0.34
2013-2-23,44.5,40.1,36.5,43.0,39.2,36.0,98,97,92,30.10,29.81,10,2,10,0.34
2013-2-24,64.5,49.7,39.6,45.4,34.1,20.5,100,64,19,29.98,29.81,20,3,20,0.01
2013-2-25,45.2,42.0,36.6,28.7,26.0,23.6,72,53,45,30.12,29.95,12,3,12,0.00
2013-2-26,40.6,35.9,32.4,40.6,34.6,27.7,100,95,70,30.03,29.57,16,5,16,1.23
2013-2-27,56.5,46.0,35.3,40.6,35.5,32.2,100,69,46,29.78,29.63,14,3,14,0.01
2013-2-28,49.8,40.6,31.3,33.1,27.2,22.7,92,61,39,29.87,29.68,16,4,16,0.00
2013-3-1,47.7,38.1,27.0,29.1,26.1,22.7,89,63,41,29.91,29.83,14,3,14,0.00
2013-3-2,47.1,38.3,28.5,36.2,30.2,20.7,96,73,56,29.91,29.79,9,2,12,0.06
2013-3-3,44.1,33.2,24.7,21.2,17.3,13.0,80,54,29,30.00,29.88,13,3,15,0.00
2013-3-4,56.9,37.9,20.5,26.2,16.1,11.7,76,46,17,30.13,29.99,14,2,14,0.00
2013-3-5,55.0,45.9,40.8,45.5,36.4,19.5,98,72,37,30.04,29.59,16,2,16,0.46
2013-3-6,45.5,38.6,29.5,42.1,24.6,19.8,98,58,41,30.09,29.61,28,10,28,0.01
2013-3-7,56.9,39.2,25.6,29.6,25.1,22.0,90,61,31,30.24,30.09,13,2,13,0.00
2013-3-8,59.5,42.4,26.6,25.0,21.3,12.7,80,47,17,30.28,30.16,15,4,15,0.00
2013-3-9,63.7,48.2,31.9,32.0,26.5,22.5,71,44,25,30.32,30.19,8,1,11,0.00
2013-3-10,66.8,52.4,39.6,37.3,33.7,30.0,78,51,27,30.25,30.11,9,1,9,0.00
2013-3-11,67.4,54.6,43.3,55.0,43.5,31.7,98,68,50,30.14,29.78,11,2,11,0.45
2013-3-12,66.0,57.2,43.6,56.9,42.7,17.4,99,66,17,29.95,29.69,20,5,20,0.27
2013-3-13,56.5,45.8,37.0,32.1,23.5,16.3,70,43,24,30.13,29.94,26,6,26,0.00
2013-3-14,51.9,39.3,25.7,21.5,15.9,9.4,72,41,19,30.27,30.13,17,4,17,0.00
2013-3-15,69.8,50.2,30.1,40.9,27.4,10.9,63,42,28,30.16,29.86,14,3,14,0.00
2013-3-16,77.4,65.9,55.0,46.7,42.3,39.3,60,44,30,29.87,29.68,26,6,26,0.00
2013-3-17,77.0,62.9,46.2,49.6,43.2,38.6,75,50,32,30.02,29.79,13,3,13,0.00
2013-3-18,46.2,41.3,39.5,41.4,39.4,37.7,98,93,75,30.07,29.83,15,4,15,0.39
2013-3-19,64.8,51.0,40.5,43.1,29.7,13.3,100,55,19,30.01,29.82,21,8,21,0.01
2013-3-20,58.0,48.5,42.8,23.7,14.2,10.0,39,25,17,30.07,29.74,21,4,21,0.00
2013-3-21,45.5,37.6,30.0,28.7,12.3,5.1,61,36,23,29.93,29.77,21,9,21,0.00
2013-3-22,51.7,38.3,25.4,26.6,16.7,10.3,65,43,25,30.06,29.93,12,2,14,0.00
2013-3-23,52.6,44.1,39.5,42.9,36.9,24.6,96,77,47,30.00,29.85,7,1,7,0.04
2013-3-24,43.9,41.7,38.9,42.6,40.0,37.3,100,94,85,29.89,29.51,16,4,16,0.90
2013-3-25,45.2,40.1,34.7,38.8,26.8,17.9,98,63,36,29.89,29.52,20,4,20,0.01
2013-3-26,46.4,37.6,26.4,24.0,21.8,19.3,79,54,37,30.16,29.87,22,4,22,0.00
2013-3-27,54.4,39.7,27.2,25.0,21.0,13.9,77,51,21,30.24,30.14,17,4,17,0.00
2013-3-28,58.3,42.8,27.0,27.1,20.4,13.0,77,45,17,30.28,30.14,20,4,20,0.00
2013-3-29,62.9,46.8,31.2,44.6,26.7,20.0,90,50,22,30.31,30.16,13,2,13,0.01
2013-3-30,66.3,53.2,44.1,46.8,42.1,38.3,97,70,37,30.19,29.99,12,2,12,0.05
2013-3-31,70.8,57.5,48.9,56.7,51.0,41.5,99,81,51,30.00,29.77,21,3,21,0.36
2013-4-1,72.5,60.9,52.3,55.6,43.0,31.3,98,58,27,29.91,29.78,17,5,17,0.02
2013-4-2,67.4,55.7,42.2,38.2,29.3,20.4,65,38,22,30.10,29.91,15,4,15,0.00
2013-4-3,59.9,52.8,45.1,32.9,22.5,14.4,55,31,23,30.22,30.06,12,2,14,0.00
2013-4-4,51.7,42.2,36.3,37.2,30.4,21.0,95,68,33,30.21,29.95,20,6,20,0.76
2013-4-5,66.4,49.8,36.5,43.4,38.3,28.8,98,69,25,30.02,29.85,14,4,14,0.00
2013-4-6,70.9,55.8,41.1,38.7,34.8,29.1,78,49,22,30.17,30.02,12,2,12,0.00
2013-4-7,71.8,57.3,40.9,47.6,42.7,36.0,87,60,36,30.20,30.04,12,2,12,0.00
2013-4-8,77.9,64.2,51.7,56.2,51.1,44.8,95,65,37,30.11,30.00,15,2,15,0.00
2013-4-9,82.8,68.3,54.5,57.6,53.9,50.0,92,63,38,30.14,30.03,13,2,13,0.00
2013-4-10,84.7,71.2,58.7,60.3,56.4,54.3,91,62,37,30.05,29.88,13,2,13,0.00
2013-4-11,81.1,68.7,56.9,66.7,59.9,55.1,97,75,48,29.91,29.67,16,2,16,0.00
2013-4-12,80.1,69.1,59.6,67.3,53.6,35.5,99,65,25,29.75,29.60,25,3,25,1.01
2013-4-13,78.1,61.0,43.8,44.4,37.5,32.1,78,46,19,29.98,29.75,14,2,14,0.00
2013-4-14,73.2,61.2,45.4,54.1,43.1,32.3,88,53,34,30.03,29.92,7,1,7,0.04
2013-4-15,69.6,60.8,56.0,58.1,56.1,53.7,97,85,64,30.15,29.92,12,3,12,0.03
2013-4-16,79.6,66.3,57.2,61.2,57.3,55.3,95,75,46,30.24,30.12,10,1,10,0.00
2013-4-17,80.7,66.9,57.3,62.6,59.4,55.9,96,79,47,30.19,30.05,13,2,13,0.00
2013-4-18,79.8,68.2,59.5,64.1,60.4,57.2,98,79,49,30.10,29.92,9,1,9,0.03
2013-4-19,74.6,64.5,51.6,66.4,60.7,48.5,96,88,69,29.92,29.70,14,4,14,0.36
2013-4-20,65.2,52.1,37.0,47.7,33.8,27.4,93,53,27,30.23,29.87,13,3,13,0.00
2013-4-21,63.5,54.3,46.2,40.2,34.9,27.6,61,48,38,30.38,30.23,14,4,14,0.00
2013-4-22,63.1,52.6,43.5,40.1,35.0,28.8,79,54,30,30.38,30.18,16,4,16,0.00
2013-4-23,73.3,57.8,45.7,49.6,41.5,30.2,80,56,36,30.23,30.06,17,4,17,0.00
2013-4-24,73.5,60.8,48.6,58.0,53.4,47.5,98,78,52,30.10,29.97,15,2,15,0.00
2013-4-25,73.0,60.8,49.6,58.4,42.1,24.7,94,55,24,30.24,30.00,12,3,12,0.00
2013-4-26,72.0,60.4,46.7,45.5,34.1,24.7,64,38,24,30.39,30.24,12,3,12,0.00
2013-4-27,61.3,56.3,53.3,55.0,50.6,39.3,98,82,47,30.30,30.20,5,0,6,0.69
2013-4-28,54.8,53.7,51.7,54.5,53.1,51.2,99,98,96,30.22,30.01,14,2,14,1.84
2013-4-29,74.4,61.1,54.1,61.0,57.1,53.8,100,88,56,30.02,29.88,6,1,6,0.08
2013-4-30,74.7,63.5,55.0,61.8,58.4,54.7,100,86,55,30.05,29.93,12,1,12,0.00
2013-5-1,65.5,60.3,55.0,56.2,54.7,52.7,96,82,68,30.22,30.12,7,2,14,0.00
2013-5-2,62.4,58.1,55.9,57.5,55.9,54.2,98,92,82,30.25,30.18,11,3,11,0.08
2013-5-3,64.7,59.2,54.8,56.1,53.4,50.4,97,82,66,30.19,30.05,12,3,12,0.04
2013-5-4,59.0,54.5,49.8,52.4,47.1,41.6,91,76,61,30.06,29.92,12,3,12,0.10
2013-5-5,58.3,52.3,49.9,58.3,51.8,49.1,100,98,91,29.96,29.77,15,4,15,4.15
2013-5-6,67.9,58.9,50.5,57.6,52.5,45.9,100,82,49,29.86,29.77,12,1,12,0.11
2013-5-7,71.5,56.6,44.9,54.6,49.0,44.1,99,79,39,29.91,29.82,12,1,12,0.01
2013-5-8,75.1,62.9,48.5,58.0,53.8,48.0,99,75,48,29.97,29.87,12,1,12,0.00
2013-5-9,80.9,66.3,52.8,59.9,55.0,51.5,97,70,39,30.04,29.94,10,0,10,0.00
2013-5-10,80.9,68.3,54.5,63.0,59.0,53.9,99,75,47,30.02,29.90,14,1,14,0.00
2013-5-11,78.5,69.1,60.5,64.0,60.7,57.2,94,76,56,29.92,29.75,12,2,15,0.00
2013-5-12,72.5,62.9,51.4,59.3,43.8,23.2,89,54,17,30.00,29.80,17,4,17,0.00
2013-5-13,69.4,56.4,42.1,38.3,31.5,23.2,77,43,18,30.14,30.00,14,4,15,0.00
2013-5-14,73.7,59.4,42.1,49.5,40.3,29.6,78,52,32,30.22,30.03,8,1,8,0.00
2013-5-15,88.4,71.0,53.3,63.7,56.6,49.3,95,64,37,30.03,29.88,10,1,10,0.00
2013-5-16,80.7,70.5,60.4,64.5,58.8,53.6,93,68,45,29.97,29.90,9,1,9,0.00
2013-5-17,85.3,71.2,58.9,65.6,61.5,58.1,98,75,40,30.03,29.95,5,0,10,0.00
2013-5-18,70.3,67.0,63.7,68.6,64.7,60.3,98,93,82,30.09,29.99,2,0,0,0.44
2013-5-19,77.2,69.3,65.0,68.5,66.5,64.6,99,91,71,30.06,29.95,5,0,5,0.04
2013-5-20,82.4,70.6,66.1,69.3,66.5,65.0,99,88,60,30.07,29.94,4,0,4,0.00
2013-5-21,85.3,69.5,64.2,70.3,65.9,63.6,99,89,59,29.99,29.87,5,0,5,0.00
2013-5-22,83.6,68.7,63.1,68.5,64.6,60.7,99,88,57,29.94,29.80,17,2,17,0.57
2013-5-23,80.1,66.6,62.9,68.4,64.7,60.2,100,94,64,29.91,29.76,20,0,20,0.45
2013-5-24,73.3,63.2,49.9,62.4,48.4,34.8,98,64,26,30.17,29.84,20,4,20,0.01
2013-5-25,78.6,60.3,41.8,53.2,43.6,38.4,94,59,26,30.27,30.12,9,1,9,0.00
2013-5-26,77.0,64.2,56.7,54.6,48.0,40.7,79,57,39,30.24,30.12,9,0,9,0.00
2013-5-27,82.6,68.0,52.2,62.1,55.6,50.0,95,68,41,30.22,30.08,6,0,6,0.00
2013-5-28,84.0,71.7,60.1,65.2,62.0,58.3,97,73,49,30.17,30.08,6,1,6,0.00
2013-5-29,84.3,71.9,59.2,65.4,61.4,57.8,97,72,44,30.18,30.10,5,0,5,0.00
2013-5-30,84.0,72.3,61.0,66.5,62.8,57.7,98,74,42,30.22,30.10,6,0,6,0.00
2013-5-31,86.3,74.4,66.0,67.5,65.1,61.4,94,75,47,30.18,30.05,6,1,6,0.00
2013-6-1,85.5,74.7,66.4,68.5,66.2,63.7,98,77,50,30.07,29.95,7,1,7,0.04
2013-6-2,78.5,72.0,66.9,72.8,67.9,64.5,98,87,73,29.99,29.85,7,0,7,0.44
2013-6-3,80.7,71.2,65.8,72.2,68.2,65.5,100,91,68,29.90,29.79,5,0,4,0.35
2013-6-4,83.6,73.8,65.5,69.1,66.2,63.0,98,79,53,30.00,29.88,9,2,9,0.24
2013-6-5,80.5,71.7,67.8,70.7,67.3,64.6,99,86,69,30.03,29.90,7,1,9,0.69
2013-6-6,74.2,70.9,68.4,73.1,70.2,67.8,100,98,90,29.92,29.74,9,0,9,0.64
2013-6-7,84.0,70.6,66.9,72.9,68.0,64.0,99,92,63,29.78,29.60,12,2,12,0.19
2013-6-8,84.3,73.4,66.3,70.3,67.0,63.7,99,82,54,30.02,29.77,7,0,7,0.00
2013-6-9,84.9,72.3,66.1,72.6,69.0,65.5,99,90,63,30.08,29.98,4,0,4,0.54
2013-6-10,77.6,71.4,67.8,73.2,69.0,66.0,100,93,71,30.02,29.85,4,0,4,0.54
2013-6-11,88.6,75.5,67.1,70.9,66.8,60.8,99,78,42,29.95,29.87,10,0,10,0.04
2013-6-12,88.0,76.8,65.8,78.0,69.8,62.3,94,80,52,29.96,29.84,4,0,4,0.00
2013-6-13,91.4,79.4,70.6,74.3,69.3,62.8,96,73,46,29.84,29.62,14,2,15,0.00
2013-6-14,83.0,73.4,60.7,64.3,56.2,51.5,84,57,35,29.98,29.71,17,4,17,0.00
2013-6-15,85.3,71.9,58.1,64.5,59.2,53.5,91,66,44,30.08,29.98,7,1,7,0.00
2013-6-16,86.1,74.1,63.4,68.7,64.6,60.1,95,74,50,30.09,29.96,10,1,10,0.00
2013-6-17,83.2,74.4,67.6,73.7,69.5,66.7,98,85,67,29.98,29.89,15,1,15,0.77
2013-6-18,82.0,72.4,67.4,73.5,70.4,66.8,100,94,69,29.90,29.74,12,1,12,1.05
2013-6-19,81.8,73.7,67.1,70.5,66.0,62.3,99,78,56,30.05,29.84,12,1,12,0.02
2013-6-20,82.0,73.2,66.6,68.3,65.9,64.2,95,79,57,30.17,30.04,5,1,5,0.00
2013-6-21,84.3,73.8,66.1,66.7,63.0,59.8,89,71,48,30.22,30.11,7,1,9,0.00
2013-6-22,85.3,73.8,65.2,68.6,63.3,57.8,88,71,50,30.17,30.05,12,2,12,0.00
2013-6-23,86.7,74.3,64.8,72.7,68.2,64.2,99,83,53,30.16,30.05,9,0,9,0.01
2013-6-24,84.9,75.6,67.4,76.0,70.8,67.0,99,86,67,30.16,30.03,7,0,7,0.04
2013-6-25,89.0,75.5,68.8,72.6,69.9,67.3,99,85,53,30.08,29.95,12,1,12,0.10
2013-6-26,89.3,76.4,67.4,74.2,71.2,67.1,100,85,55,30.00,29.84,10,1,10,0.01
2013-6-27,87.4,77.4,72.1,77.0,72.5,69.4,98,86,62,29.89,29.67,9,1,12,0.06
2013-6-28,93.2,79.6,67.8,75.7,70.7,66.9,99,77,48,29.72,29.52,12,1,12,0.05
2013-6-29,87.6,77.0,68.3,72.6,69.5,66.4,98,79,52,29.65,29.56,5,0,6,0.00
2013-6-30,85.9,74.4,68.9,73.6,69.4,67.8,98,86,56,29.78,29.63,5,0,6,0.05
2013-7-1,81.4,73.5,68.4,71.9,69.9,68.1,100,89,70,29.90,29.75,5,0,5,0.15
2013-7-2,79.6,73.4,70.4,73.5,71.6,68.9,100,94,79,30.08,29.90,7,0,7,0.39
2013-7-3,79.8,73.1,66.6,73.3,71.2,65.4,99,94,78,30.16,30.05,9,0,9,0.26
2013-7-4,82.2,72.3,66.9,77.8,70.9,66.3,100,96,70,30.17,30.07,6,0,12,1.61
2013-7-5,84.7,73.8,69.8,75.0,71.8,69.8,100,94,65,30.18,30.11,10,0,10,0.27
2013-7-6,85.1,75.6,70.9,74.5,72.2,70.9,100,90,66,30.17,30.05,6,0,6,0.10
2013-7-7,84.3,76.8,72.5,76.2,73.3,69.5,100,90,68,30.13,30.00,5,0,5,0.05
2013-7-8,83.8,76.6,71.3,76.5,72.7,69.9,99,88,70,30.13,30.03,9,0,9,0.26
2013-7-9,89.7,78.2,68.6,76.2,72.2,68.0,99,83,60,30.11,29.98,6,1,6,0.01
2013-7-10,84.5,74.9,68.6,75.9,72.0,68.3,100,91,71,30.06,29.89,26,1,26,1.08
2013-7-11,79.2,74.4,70.6,76.6,73.6,70.3,100,97,87,29.91,29.81,4,0,4,0.21
2013-7-12,83.4,73.6,66.9,73.8,70.4,64.8,100,90,70,29.94,29.82,12,1,12,0.05
2013-7-13,80.5,72.8,67.4,71.7,68.9,65.8,98,88,72,30.05,29.94,10,2,10,0.00
2013-7-14,83.8,74.1,71.3,74.5,72.2,69.7,100,94,71,30.21,30.04,12,1,12,0.60
2013-7-15,86.5,76.4,70.1,73.9,71.2,69.6,99,85,60,30.27,30.17,7,1,9,0.00
2013-7-16,91.0,79.0,69.1,75.1,71.6,67.4,99,80,49,30.25,30.15,6,0,6,0.01
2013-7-17,90.5,76.7,68.1,79.2,71.7,67.7,99,86,61,30.18,30.04,29,1,29,0.70
2013-7-18,89.7,76.1,67.9,75.5,71.2,67.9,100,86,59,30.11,30.04,4,0,4,0.01
2013-7-19,88.4,78.8,70.4,75.7,73.1,70.1,100,84,60,30.05,29.92,5,0,5,0.00
2013-7-20,86.5,75.7,70.9,76.0,72.7,69.7,99,91,68,29.98,29.88,21,1,21,0.00
2013-7-21,88.2,74.7,68.9,75.9,71.8,68.6,100,92,62,29.95,29.86,18,1,18,0.23
2013-7-22,85.3,75.1,69.9,76.7,72.2,68.2,100,91,65,29.95,29.78,12,1,12,0.87
2013-7-23,89.3,77.5,69.8,74.4,70.9,66.3,100,82,49,29.83,29.71,10,1,10,0.01
2013-7-24,90.1,78.2,68.4,75.6,70.8,66.8,99,80,52,29.77,29.68,10,1,10,0.00
2013-7-25,85.5,74.6,67.9,71.9,68.3,65.8,99,82,59,29.96,29.76,13,2,13,0.43
2013-7-26,84.5,74.9,66.9,72.9,69.9,66.9,100,86,62,30.04,29.94,4,0,4,0.00
2013-7-27,80.7,74.0,70.1,75.7,72.4,69.5,99,95,76,29.96,29.84,6,0,6,0.79
2013-7-28,87.2,75.9,68.9,73.1,70.5,68.6,100,85,57,29.94,29.85,10,1,10,0.00
2013-7-29,85.5,74.7,65.3,71.7,67.4,63.8,98,80,52,30.09,29.94,4,0,5,0.00
2013-7-30,84.9,75.0,68.1,73.8,68.4,61.3,97,81,58,30.16,30.07,6,1,7,0.00
2013-7-31,80.3,74.2,70.9,74.1,71.1,67.0,98,90,75,30.10,29.92,4,0,9,0.01
2013-8-1,85.6,76.2,71.1,74.9,71.6,69.5,98,87,62,29.93,29.83,9,1,9,0.00
2013-8-2,89.5,76.9,68.1,73.3,69.8,66.3,99,81,51,29.97,29.86,7,1,7,0.01
2013-8-3,86.7,78.2,71.5,74.8,71.1,66.2,99,81,52,29.97,29.88,7,1,9,0.00
2013-8-4,87.2,78.0,69.9,72.9,68.6,63.3,96,74,50,29.96,29.86,10,2,10,0.00
2013-8-5,84.3,74.9,68.3,71.9,67.6,63.8,89,79,62,30.01,29.91,7,1,7,0.00
2013-8-6,76.3,71.7,68.9,72.4,70.3,68.8,100,96,84,30.01,29.91,5,0,5,0.57
2013-8-7,80.5,74.0,69.6,75.8,71.9,69.5,100,93,77,30.02,29.95,4,0,4,0.11
2013-8-8,85.3,76.9,71.6,74.8,72.9,71.5,100,89,66,30.01,29.94,9,1,9,0.01
2013-8-9,88.8,76.7,71.3,76.9,73.5,71.0,100,91,64,30.02,29.95,9,1,17,0.40
2013-8-10,89.5,77.2,70.8,78.0,73.6,69.4,100,90,65,30.06,29.99,15,1,15,0.27
2013-8-11,89.9,75.8,68.8,75.7,72.0,68.8,100,90,56,30.07,29.98,12,1,12,0.03
2013-8-12,91.0,77.4,69.4,77.5,72.2,69.4,100,86,52,30.01,29.90,6,0,6,0.01
2013-8-13,88.8,76.5,70.6,75.3,72.0,68.0,100,87,58,29.91,29.74,12,2,21,0.37
2013-8-14,79.8,72.1,66.9,72.0,66.7,61.8,100,84,62,30.01,29.81,5,0,5,0.00
2013-8-15,73.5,67.7,61.6,62.1,59.2,57.0,90,75,59,30.10,30.00,10,2,10,0.00
2013-8-16,71.6,65.4,61.5,63.3,59.9,56.8,95,83,71,30.12,30.04,6,2,6,0.11
2013-8-17,68.3,64.4,61.8,64.0,61.4,58.8,99,90,79,30.15,30.08,13,2,13,0.16
2013-8-18,78.1,69.8,63.9,71.3,67.1,63.6,100,92,73,30.17,30.09,5,0,5,0.10
2013-8-19,78.6,70.5,66.9,70.4,68.3,66.3,100,93,71,30.14,30.04,7,0,7,0.90
2013-8-20,79.2,71.3,65.8,71.9,68.7,65.8,100,92,71,30.14,30.06,3,0,3,0.00
2013-8-21,79.9,72.7,69.8,74.8,71.5,69.4,100,96,79,30.18,30.06,9,0,9,0.65
2013-8-22,88.6,76.2,69.3,73.9,70.5,68.2,100,85,54,30.10,29.97,7,0,7,0.00
2013-8-23,88.8,73.1,66.9,72.6,68.9,66.0,100,89,52,30.00,29.91,21,1,21,0.16
2013-8-24,81.4,71.6,63.9,69.8,62.5,57.9,100,75,51,30.23,30.00,12,3,12,0.00
2013-8-25,80.5,70.1,61.6,64.2,60.3,57.8,92,73,48,30.34,30.23,7,1,7,0.00
2013-8-26,83.0,69.1,57.8,67.7,62.1,57.5,100,81,51,30.28,30.08,4,0,4,0.00
2013-8-27,88.6,73.8,62.6,72.5,66.6,62.4,100,81,47,30.10,29.94,7,1,7,0.00
2013-8-28,88.8,77.5,67.8,74.7,70.6,66.7,98,81,55,29.98,29.87,5,0,6,0.00
2013-8-29,92.5,79.5,68.8,75.7,71.2,68.3,99,78,46,29.91,29.82,6,0,11,0.00
2013-8-30,85.5,76.9,70.4,72.9,70.5,67.8,97,82,59,29.99,29.88,6,0,6,0.00
2013-8-31,88.0,73.4,67.8,75.6,70.3,67.3,100,91,60,29.91,29.82,6,0,10,0.15
2013-9-1,88.2,74.9,66.9,75.7,70.8,66.9,100,88,64,29.87,29.74,12,1,12,0.00
2013-9-2,87.6,76.8,69.3,75.5,71.8,68.9,100,86,60,29.85,29.75,5,0,5,0.00
2013-9-3,88.0,76.7,68.8,73.1,68.2,64.0,99,78,47,29.91,29.76,12,1,12,0.00
2013-9-4,86.7,75.0,67.6,70.2,65.1,60.9,95,73,50,30.04,29.91,12,1,7,0.00
2013-9-5,88.0,74.6,66.0,71.7,66.5,60.1,99,78,47,30.07,29.99,9,1,10,0.00
2013-9-6,83.0,73.4,64.7,65.3,61.1,58.6,86,66,45,30.13,30.01,12,2,12,0.00
2013-9-7,84.0,72.0,62.0,68.4,63.8,60.4,96,77,52,30.09,29.93,6,1,6,0.00
2013-9-8,85.3,72.9,62.4,70.9,66.4,62.1,100,82,52,29.95,29.88,6,0,6,0.00
2013-9-9,87.8,75.1,66.3,70.4,67.3,64.5,99,79,48,30.08,29.94,6,0,6,0.00
2013-9-10,89.3,75.4,66.1,72.2,68.1,64.9,99,80,47,30.18,30.08,5,0,5,0.00
2013-9-11,89.5,75.5,65.8,71.5,67.6,64.4,100,79,45,30.16,30.03,5,0,5,0.00
2013-9-12,88.4,73.7,66.6,72.3,69.1,66.0,100,87,52,30.03,29.80,21,1,21,0.08
2013-9-13,83.2,73.6,66.8,71.1,60.7,50.2,100,67,35,29.85,29.73,12,3,17,0.00
2013-9-14,77.6,66.6,57.6,58.8,53.3,48.5,80,63,48,30.06,29.85,12,3,12,0.00
2013-9-15,80.9,67.8,57.8,67.6,60.4,55.0,95,78,57,30.17,30.06,5,1,8,0.00
2013-9-16,84.7,73.4,63.1,67.1,62.9,59.7,98,73,44,30.10,29.99,9,1,12,0.00
2013-9-17,73.8,68.4,63.7,60.9,57.2,54.5,77,68,54,30.25,30.10,12,3,12,0.00
2013-9-18,74.2,66.3,59.0,61.0,56.7,53.8,83,72,56,30.25,30.12,9,1,9,0.00
2013-9-19,82.2,69.2,58.3,66.8,60.9,56.1,97,77,52,30.15,30.03,5,0,5,0.00
2013-9-20,85.3,71.7,61.0,67.5,64.1,60.4,99,79,50,30.03,29.86,9,1,9,0.00
2013-9-21,72.5,67.7,63.4,71.0,66.5,62.8,99,96,87,29.87,29.62,13,1,15,2.68
2013-9-22,78.4,66.2,57.3,64.0,58.1,51.3,100,79,44,29.86,29.67,12,1,12,0.01
2013-9-23,76.8,64.9,58.6,61.0,56.8,52.2,97,76,51,30.01,29.86,7,1,14,0.00
2013-9-24,76.5,65.6,54.8,63.3,59.7,54.2,100,83,58,30.03,29.89,4,0,5,0.00
2013-9-25,67.9,63.2,61.5,63.9,61.8,59.6,100,96,75,29.90,29.82,4,0,4,0.78
2013-9-26,75.8,65.6,58.3,62.0,57.6,52.6,99,78,48,29.99,29.83,8,2,13,0.00
2013-9-27,76.0,65.7,57.5,58.9,54.9,51.4,83,69,49,30.13,29.99,12,2,12,0.00
2013-9-28,73.0,63.1,56.6,56.9,54.1,51.4,90,74,51,30.21,30.11,9,2,9,0.00
2013-9-29,73.3,62.6,55.9,59.1,54.8,50.5,93,77,54,30.14,30.00,12,1,12,0.00
2013-9-30,77.4,64.3,54.4,59.7,56.2,53.0,98,78,47,30.06,29.95,5,0,6,0.00
2013-10-1,81.2,65.9,55.0,62.3,57.8,54.4,100,79,42,30.10,29.99,6,1,6,0.00
2013-10-2,83.0,67.8,56.3,66.0,60.3,55.7,99,80,44,30.10,30.01,9,0,9,0.00
2013-10-3,83.0,69.0,59.2,65.4,61.9,58.9,100,81,47,30.08,30.01,9,0,9,0.00
2013-10-4,84.9,69.3,58.7,67.9,62.8,58.4,100,82,47,30.10,30.02,5,0,5,0.00
2013-10-5,85.9,71.1,61.2,67.8,63.8,60.9,100,81,47,30.09,29.98,5,0,5,0.00
2013-10-6,82.4,70.1,62.3,67.1,64.1,61.6,99,83,55,29.99,29.82,5,0,7,0.00
2013-10-7,75.1,68.7,60.5,70.2,64.4,52.5,100,87,68,29.95,29.73,9,2,12,2.08
2013-10-8,69.9,61.9,56.3,54.3,49.5,44.3,78,64,50,30.15,29.93,15,4,18,0.00
2013-10-9,72.1,61.1,51.6,49.9,45.3,41.6,78,58,36,30.18,30.06,15,4,15,0.00
2013-10-10,77.6,61.8,47.3,60.1,51.6,45.5,95,71,44,30.08,29.93,13,2,13,0.00
2013-10-11,80.3,66.4,56.2,62.1,55.6,52.8,89,70,42,29.95,29.86,12,2,12,0.00
2013-10-12,74.4,65.0,55.7,64.0,58.1,53.1,96,80,58,30.04,29.91,4,0,4,0.00
2013-10-13,74.0,66.6,62.9,63.4,61.5,60.4,97,84,65,30.15,30.04,13,2,13,0.00
2013-10-14,70.4,65.0,61.8,61.4,60.0,58.8,92,84,71,30.18,30.09,12,2,12,0.00
2013-10-15,71.8,62.9,58.9,60.2,56.7,53.8,93,81,55,30.15,30.00,12,2,12,0.00
2013-10-16,71.6,62.2,52.5,60.6,57.1,51.8,99,85,62,30.04,29.91,5,0,5,0.00
2013-10-17,68.6,63.4,58.9,65.3,62.0,58.1,100,95,79,29.93,29.81,6,1,6,0.16
2013-10-18,68.9,61.1,53.1,63.9,57.3,52.3,100,88,67,29.98,29.84,6,1,6,0.01
2013-10-19,62.6,58.6,50.7,61.6,57.3,50.4,100,96,81,29.92,29.79,5,0,10,0.03
2013-10-20,66.8,53.7,43.1,51.4,46.3,42.1,100,78,47,30.06,29.88,5,1,5,0.00
2013-10-21,68.3,55.4,43.9,54.6,48.7,42.2,98,80,56,30.11,29.97,5,1,5,0.00
2013-10-22,66.0,59.2,54.5,58.1,55.4,53.5,99,88,66,29.99,29.75,10,1,10,0.00
2013-10-23,64.7,52.5,36.8,54.4,41.9,29.6,100,72,34,30.02,29.69,22,4,22,0.00
2013-10-24,59.4,44.1,32.4,44.6,35.6,30.9,96,75,43,30.15,30.01,8,1,12,0.00
2013-10-25,53.5,44.0,37.6,38.1,30.7,25.0,96,62,35,30.36,30.15,15,3,15,0.00
2013-10-26,56.9,43.4,30.1,38.3,31.6,26.0,90,65,39,30.35,30.05,10,1,10,0.00
2013-10-27,68.1,52.8,39.2,51.6,44.0,36.5,97,74,48,30.10,30.02,9,1,9,0.00
2013-10-28,69.9,57.7,49.1,57.1,52.7,48.4,99,85,53,30.22,30.06,6,0,6,0.01
2013-10-29,73.9,59.1,48.3,56.1,52.8,48.0,100,82,48,30.29,30.18,9,0,9,0.00
2013-10-30,77.7,62.9,53.6,58.4,55.5,51.9,97,79,47,30.24,30.11,14,1,14,0.00
2013-10-31,58.8,56.0,55.3,56.3,55.1,54.5,98,97,91,30.13,29.23,1,0,1,0.00
2013-11-1,63.2,60.1,57.5,61.1,58.9,56.9,99,96,91,29.69,29.64,7,1,7,0.00
2013-11-2,68.3,54.9,43.2,57.7,45.9,37.1,100,75,37,29.95,29.68,12,2,20,0.02
2013-11-3,61.8,49.5,38.9,40.9,37.2,33.3,92,65,35,30.32,29.95,13,2,13,0.00
2013-11-4,58.0,49.0,41.3,38.4,33.5,31.5,71,56,39,30.48,30.32,14,3,14,0.00
2013-11-5,55.7,47.2,37.6,49.0,38.1,28.4,95,71,59,30.53,30.38,15,4,15,0.00
2013-11-6,68.6,56.4,50.4,55.2,50.9,48.7,97,83,58,30.39,30.09,9,2,7,0.00
2013-11-7,70.6,54.9,41.1,59.7,45.7,28.6,100,76,25,30.10,29.92,20,3,20,0.01
2013-11-8,57.8,45.3,31.2,33.8,27.5,21.5,87,53,25,30.28,30.10,8,1,8,0.00
2013-11-9,58.6,46.1,32.5,37.8,30.6,23.3,81,57,33,30.34,30.18,6,1,6,0.00
2013-11-10,71.3,55.4,40.8,37.5,33.3,26.1,84,49,22,30.19,30.08,16,4,16,0.00
2013-11-11,60.1,48.7,40.8,34.1,28.2,25.0,67,46,27,30.31,30.12,12,1,12,0.00
2013-11-12,64.8,45.9,29.8,38.0,28.9,12.2,76,53,28,30.43,30.02,22,7,22,0.00
2013-11-13,47.7,33.6,24.1,20.1,15.0,9.9,76,49,25,30.53,30.41,10,2,10,0.00
2013-11-14,57.5,39.2,26.1,23.8,19.2,15.8,72,48,22,30.47,30.30,6,1,6,0.00
2013-11-15,56.0,45.2,31.5,47.1,33.0,20.0,98,65,33,30.32,30.17,7,0,10,0.21
2013-11-16,63.1,54.6,47.6,54.9,51.6,47.1,99,90,74,30.23,30.14,7,1,7,0.01
2013-11-17,65.3,59.1,54.7,63.4,57.1,52.8,100,93,78,30.17,29.85,5,1,5,0.34
2013-11-18,73.2,60.7,43.9,62.9,46.1,29.1,100,65,26,29.94,29.79,20,4,20,0.02
2013-11-19,55.9,47.7,41.5,33.8,26.2,21.3,63,44,27,30.21,29.94,12,2,12,0.00
2013-11-20,52.0,44.5,36.9,32.1,29.4,26.7,69,56,41,30.42,30.20,13,4,13,0.00
2013-11-21,53.1,47.8,43.9,48.3,39.4,31.2,96,73,60,30.44,30.34,14,4,14,0.02
2013-11-22,61.8,54.8,48.8,57.3,53.2,48.0,99,95,84,30.37,30.07,7,1,10,0.03
2013-11-23,59.6,53.7,38.6,57.2,45.4,21.5,100,75,45,30.18,30.01,13,3,13,0.00
2013-11-24,42.6,34.8,28.2,22.3,10.6,1.1,53,38,22,30.50,30.17,13,4,13,0.00
2013-11-25,40.1,32.5,22.1,18.4,9.9,5.4,66,40,26,30.54,30.31,9,1,9,0.00
2013-11-26,43.9,36.4,31.6,43.9,33.7,18.5,100,91,47,30.31,29.60,16,3,16,2.54
2013-11-30,43.6,43.6,43.6,43.6,43.6,43.6,100,100,100,30.36,30.35,0,0,0,2.54
2013-12-4,43.6,43.6,43.6,43.6,43.6,43.6,100,100,100,29.97,29.96,0,0,0,2.54
2013-12-11,43.6,43.6,43.6,43.6,43.6,43.6,100,100,100,30.29,30.28,0,0,0,2.54
2013-12-12,43.6,43.6,43.6,43.6,43.6,43.6,100,100,100,30.23,30.23,0,0,0,0.00
2014-1-1,43.6,43.6,43.6,43.6,43.6,43.6,100,100,100,30.08,30.07,0,0,0,2.54
2014-1-2,43.6,43.6,43.6,43.6,43.6,43.6,100,100,100,30.07,30.07,0,0,0,0.00